createdAt,value
2018-03-26T00:02:05.427Z,72.60
2018-03-26T00:04:33.861Z,73.00
2018-03-26T00:07:01.367Z,72.90
2018-03-26T00:09:29.657Z,73.60
2018-03-26T00:11:57.932Z,73.40
2018-03-26T00:14:26.227Z,73.80
2018-03-26T00:16:53.754Z,73.80
2018-03-26T00:19:22.082Z,73.40
2018-03-26T00:21:49.686Z,73.60
2018-03-26T00:24:17.195Z,74.00
2018-03-26T00:26:45.491Z,74.30
2018-03-26T00:29:13.076Z,74.20
2018-03-26T00:31:40.595Z,74.40
2018-03-26T00:34:08.901Z,74.80
2018-03-26T00:36:36.421Z,74.70
2018-03-26T00:39:03.966Z,74.30
2018-03-26T00:41:31.512Z,74.00
2018-03-26T00:43:59.095Z,74.30
2018-03-26T00:46:27.387Z,75.10
2018-03-26T00:48:54.901Z,75.00
2018-03-26T00:51:22.441Z,74.70
2018-03-26T00:53:50.718Z,74.50
2018-03-26T00:56:18.234Z,74.50
2018-03-26T00:58:45.774Z,74.70
2018-03-26T01:01:13.286Z,74.80
2018-03-26T01:03:40.799Z,74.90
2018-03-26T01:06:08.408Z,74.50
2018-03-26T01:08:35.931Z,74.50
2018-03-26T01:11:03.447Z,75.50
2018-03-26T01:13:30.985Z,75.00
2018-03-26T01:15:58.510Z,75.40
2018-03-26T01:18:26.791Z,75.90
2018-03-26T01:20:55.114Z,75.50
2018-03-26T01:23:23.304Z,75.50
2018-03-26T01:25:50.821Z,75.90
2018-03-26T01:28:19.119Z,75.30
2018-03-26T01:30:46.627Z,75.30
2018-03-26T01:33:14.138Z,75.30
2018-03-26T01:35:41.672Z,75.40
2018-03-26T01:38:09.947Z,76.70
2018-03-26T01:40:37.813Z,76.50
2018-03-26T01:43:05.450Z,76.10
2018-03-26T01:45:33.039Z,75.80
2018-03-26T01:48:01.341Z,76.50
2018-03-26T01:50:28.894Z,76.30
2018-03-26T01:52:56.636Z,75.80
2018-03-26T01:55:24.154Z,75.90
2018-03-26T01:57:51.686Z,75.60
2018-03-26T02:00:19.280Z,75.70
2018-03-26T02:02:47.557Z,76.20
2018-03-26T02:05:15.862Z,75.70
2018-03-26T02:07:43.482Z,75.70
2018-03-26T02:10:10.956Z,76.20
2018-03-26T02:12:39.259Z,76.20
2018-03-26T02:15:06.819Z,76.20
2018-03-26T02:17:35.114Z,76.80
2018-03-26T02:20:02.641Z,76.70
2018-03-26T02:22:30.311Z,76.60
2018-03-26T02:24:59.330Z,76.80
2018-03-26T02:27:27.629Z,77.00
2018-03-26T02:29:55.139Z,76.90
2018-03-26T02:32:22.852Z,76.90
2018-03-26T02:34:50.565Z,77.40
2018-03-26T02:37:18.092Z,77.20
2018-03-26T02:39:45.655Z,77.20
2018-03-26T02:42:13.275Z,76.90
2018-03-26T02:44:40.806Z,77.30
2018-03-26T02:47:08.329Z,77.60
2018-03-26T02:49:36.636Z,77.50
2018-03-26T02:52:04.154Z,77.50
2018-03-26T02:54:32.445Z,77.40
2018-03-26T02:57:00.769Z,77.20
2018-03-26T02:59:28.281Z,77.10
2018-03-26T03:01:56.573Z,77.70
2018-03-26T03:04:24.129Z,77.60
2018-03-26T03:06:52.456Z,77.50
2018-03-26T03:09:20.483Z,77.60
2018-03-26T03:11:48.087Z,77.80
2018-03-26T03:14:15.603Z,78.10
2018-03-26T03:16:43.363Z,78.10
2018-03-26T03:19:10.904Z,78.10
2018-03-26T03:21:38.419Z,77.90
2018-03-26T03:24:06.847Z,78.00
2018-03-26T03:26:34.674Z,78.00
2018-03-26T03:29:02.985Z,78.10
2018-03-26T03:31:30.510Z,78.00
2018-03-26T03:33:58.815Z,77.80
2018-03-26T03:36:27.084Z,78.00
2018-03-26T03:38:54.645Z,77.90
2018-03-26T03:41:22.174Z,78.70
2018-03-26T03:43:49.763Z,77.90
2018-03-26T03:46:18.039Z,77.90
2018-03-26T03:48:45.568Z,78.00
2018-03-26T03:51:13.080Z,78.10
2018-03-26T03:53:41.359Z,78.00
2018-03-26T03:56:08.933Z,77.90
2018-03-26T03:58:37.214Z,78.70
2018-03-26T04:01:05.513Z,77.70
2018-03-26T04:03:33.159Z,78.20
2018-03-26T04:06:01.450Z,78.60
2018-03-26T04:08:29.811Z,78.00
2018-03-26T04:10:57.341Z,78.00
2018-03-26T04:13:25.006Z,78.60
2018-03-26T04:15:52.875Z,78.50
2018-03-26T04:18:20.434Z,78.50
2018-03-26T04:20:47.955Z,79.10
2018-03-26T04:23:16.232Z,78.60
2018-03-26T04:25:45.349Z,78.50
2018-03-26T04:28:12.862Z,78.50
2018-03-26T04:30:40.524Z,78.50
2018-03-26T04:33:08.057Z,78.30
2018-03-26T04:35:35.620Z,78.60
2018-03-26T04:38:03.940Z,79.40
2018-03-26T04:40:31.486Z,79.40
2018-03-26T04:43:00.050Z,79.30
2018-03-26T04:45:28.411Z,79.50
2018-03-26T04:47:55.963Z,80.10
2018-03-26T04:50:23.507Z,79.00
2018-03-26T04:52:51.041Z,78.80
2018-03-26T04:55:18.617Z,79.10
2018-03-26T04:57:46.127Z,79.20
2018-03-26T05:00:13.754Z,79.60
2018-03-26T05:02:41.305Z,79.20
2018-03-26T05:05:08.904Z,79.10
2018-03-26T05:07:38.092Z,79.40
2018-03-26T05:10:05.636Z,79.40
2018-03-26T05:12:33.147Z,79.60
2018-03-26T05:15:00.712Z,79.40
2018-03-26T05:17:29.239Z,79.50
2018-03-26T05:19:56.846Z,78.80
2018-03-26T05:22:24.535Z,78.20
2018-03-26T05:24:52.071Z,78.40
2018-03-26T05:27:19.582Z,78.70
2018-03-26T05:29:47.910Z,78.80
2018-03-26T05:32:15.503Z,78.60
2018-03-26T05:34:43.094Z,78.90
2018-03-26T05:37:11.367Z,77.90
2018-03-26T05:39:40.158Z,77.30
2018-03-26T05:42:08.604Z,77.40
2018-03-26T05:44:36.130Z,77.30
2018-03-26T05:47:04.528Z,76.80
2018-03-26T05:49:32.533Z,76.70
2018-03-26T05:52:00.139Z,76.80
2018-03-26T05:54:28.479Z,78.20
2018-03-26T05:56:56.002Z,77.40
2018-03-26T05:59:24.304Z,76.90
2018-03-26T06:01:51.864Z,76.90
2018-03-26T06:04:19.396Z,76.80
2018-03-26T06:06:47.670Z,76.70
2018-03-26T06:09:15.239Z,76.50
2018-03-26T06:11:42.983Z,76.60
2018-03-26T06:14:10.500Z,76.80
2018-03-26T06:16:54.894Z,76.80
2018-03-26T06:19:22.420Z,76.30
2018-03-26T06:21:49.945Z,76.60
2018-03-26T06:24:18.271Z,75.70
2018-03-26T06:26:45.814Z,75.60
2018-03-26T06:29:14.103Z,76.10
2018-03-26T06:31:41.631Z,76.10
2018-03-26T06:34:09.934Z,75.40
2018-03-26T06:36:43.248Z,76.00
2018-03-26T06:39:27.446Z,76.00
2018-03-26T06:41:54.976Z,75.90
2018-03-26T06:44:22.495Z,75.30
2018-03-26T06:46:50.774Z,75.40
2018-03-26T06:49:19.138Z,74.90
2018-03-26T06:51:47.439Z,74.90
2018-03-26T06:54:15.730Z,76.30
2018-03-26T06:56:43.320Z,75.60
2018-03-26T06:59:10.832Z,75.60
2018-03-26T07:01:39.866Z,75.50
2018-03-26T07:04:07.398Z,75.40
2018-03-26T07:06:34.926Z,75.30
2018-03-26T07:09:02.440Z,75.00
2018-03-26T07:11:31.682Z,74.60
2018-03-26T07:13:59.196Z,74.50
2018-03-26T07:16:27.495Z,74.80
2018-03-26T07:18:55.858Z,76.00
2018-03-26T07:21:23.409Z,75.90
2018-03-26T07:23:50.931Z,75.80
2018-03-26T07:26:25.185Z,75.20
2018-03-26T07:28:54.361Z,75.10
2018-03-26T07:31:21.898Z,75.10
2018-03-26T07:33:49.477Z,75.40
2018-03-26T07:36:17.062Z,74.20
2018-03-26T07:38:44.590Z,74.30
2018-03-26T07:41:12.978Z,74.60
2018-03-26T07:43:40.472Z,74.60
2018-03-26T07:46:07.984Z,74.40
2018-03-26T07:48:35.526Z,74.00
2018-03-26T07:51:03.094Z,74.00
2018-03-26T07:53:32.153Z,73.60
2018-03-26T07:55:59.947Z,73.40
2018-03-26T07:58:27.485Z,72.60
2018-03-26T08:00:54.993Z,72.60
2018-03-26T08:03:23.316Z,71.80
2018-03-26T08:05:50.943Z,71.80
2018-03-26T08:08:18.474Z,71.20
2018-03-26T08:10:46.035Z,71.40
2018-03-26T08:13:13.564Z,70.80
2018-03-26T08:15:41.837Z,70.90
2018-03-26T08:18:10.149Z,70.30
2018-03-26T08:20:37.671Z,70.20
2018-03-26T08:23:05.410Z,70.50
2018-03-26T08:25:33.731Z,73.00
2018-03-26T08:28:01.255Z,72.90
2018-03-26T08:30:29.543Z,71.00
2018-03-26T08:32:57.077Z,71.00
2018-03-26T08:35:24.585Z,71.20
2018-03-26T08:37:52.219Z,70.80
2018-03-26T08:40:19.755Z,69.70
2018-03-26T08:42:47.270Z,69.70
2018-03-26T08:45:14.789Z,69.70
2018-03-26T08:47:42.351Z,68.40
2018-03-26T08:50:10.072Z,68.60
2018-03-26T08:52:38.405Z,68.50
2018-03-26T08:55:06.066Z,68.40
2018-03-26T08:57:33.582Z,68.40
2018-03-26T09:00:02.609Z,69.50
2018-03-26T09:02:31.168Z,69.50
2018-03-26T09:04:58.803Z,69.60
2018-03-26T09:07:26.771Z,70.00
2018-03-26T09:09:55.056Z,71.40
2018-03-26T09:12:24.118Z,68.80
2018-03-26T09:14:52.398Z,68.10
2018-03-26T09:17:20.719Z,68.30
2018-03-26T09:19:48.234Z,68.30
2018-03-26T09:22:16.538Z,67.60
2018-03-26T09:24:44.138Z,67.60
2018-03-26T09:27:11.703Z,68.20
2018-03-26T09:29:39.234Z,67.60
2018-03-26T09:32:06.859Z,67.80
2018-03-26T09:34:34.382Z,68.20
2018-03-26T09:37:01.908Z,68.90
2018-03-26T09:39:30.216Z,68.60
2018-03-26T09:41:57.723Z,68.40
2018-03-26T09:44:25.259Z,68.00
2018-03-26T09:46:52.914Z,66.80
2018-03-26T09:49:20.434Z,66.90
2018-03-26T09:51:48.711Z,65.90
2018-03-26T09:54:17.131Z,65.40
2018-03-26T09:56:45.398Z,64.80
2018-03-26T09:59:13.681Z,65.40
2018-03-26T10:02:02.724Z,65.00
2018-03-26T10:04:31.037Z,64.30
2018-03-26T10:06:58.557Z,64.20
2018-03-26T10:09:26.104Z,64.30
2018-03-26T10:11:53.659Z,63.70
2018-03-26T10:14:21.181Z,63.80
2018-03-26T10:16:49.496Z,62.50
2018-03-26T10:19:17.013Z,62.50
2018-03-26T10:21:45.290Z,65.10
2018-03-26T10:24:13.626Z,63.30
2018-03-26T10:26:41.147Z,63.20
2018-03-26T10:29:09.422Z,61.00
2018-03-26T10:31:36.964Z,60.90
2018-03-26T10:34:04.487Z,61.70
2018-03-26T10:36:32.034Z,61.30
2018-03-26T10:38:59.583Z,61.40
2018-03-26T10:41:27.103Z,60.00
2018-03-26T10:43:54.622Z,60.70
2018-03-26T10:46:22.929Z,60.20
2018-03-26T10:48:50.466Z,60.10
2018-03-26T10:51:18.864Z,59.30
2018-03-26T10:53:46.396Z,59.30
2018-03-26T10:56:14.753Z,58.70
2018-03-26T10:58:42.275Z,58.60
2018-03-26T11:01:09.822Z,58.60
2018-03-26T11:03:38.146Z,58.00
2018-03-26T11:06:05.670Z,57.90
2018-03-26T11:08:33.980Z,58.30
2018-03-26T11:11:01.520Z,58.30
2018-03-26T11:13:29.055Z,57.30
2018-03-26T11:15:56.607Z,58.00
2018-03-26T11:18:24.127Z,57.60
2018-03-26T11:20:51.638Z,57.20
2018-03-26T11:23:19.162Z,59.10
2018-03-26T11:25:46.687Z,57.90
2018-03-26T11:28:15.027Z,57.60
2018-03-26T11:30:42.597Z,57.70
2018-03-26T11:33:10.100Z,57.80
2018-03-26T11:35:38.391Z,58.20
2018-03-26T11:38:06.691Z,57.10
2018-03-26T11:40:34.219Z,57.60
2018-03-26T11:43:02.503Z,56.70
2018-03-26T11:45:30.811Z,56.90
2018-03-26T11:47:58.335Z,56.90
2018-03-26T11:50:26.985Z,56.60
2018-03-26T11:52:54.526Z,56.10
2018-03-26T11:55:22.823Z,57.20
2018-03-26T11:57:50.538Z,57.10
2018-03-26T12:00:19.633Z,56.50
2018-03-26T12:02:47.263Z,56.40
2018-03-26T12:05:14.851Z,55.60
2018-03-26T12:07:42.438Z,55.70
2018-03-26T12:10:10.734Z,56.00
2018-03-26T12:12:38.326Z,56.00
2018-03-26T12:15:05.908Z,56.00
2018-03-26T12:17:33.472Z,56.60
2018-03-26T12:20:12.918Z,56.70
2018-03-26T12:22:40.444Z,56.90
2018-03-26T12:25:11.567Z,56.40
2018-03-26T12:27:51.863Z,56.60
2018-03-26T12:30:20.114Z,56.50
2018-03-26T12:32:48.411Z,56.10
2018-03-26T12:35:27.874Z,56.00
2018-03-26T12:37:55.387Z,56.20
2018-03-26T12:40:34.703Z,55.20
2018-03-26T12:43:02.258Z,54.30
2018-03-26T12:45:41.619Z,54.60
2018-03-26T12:48:09.141Z,54.50
2018-03-26T12:50:48.716Z,54.60
2018-03-26T12:53:16.292Z,54.80
2018-03-26T12:55:44.591Z,55.40
2018-03-26T12:58:24.183Z,55.30
2018-03-26T13:01:15.574Z,55.10
2018-03-26T13:03:43.138Z,54.80
2018-03-26T13:06:10.663Z,54.40
2018-03-26T13:08:38.945Z,54.70
2018-03-26T13:11:07.266Z,53.80
2018-03-26T13:13:34.771Z,53.80
2018-03-26T13:16:02.296Z,54.10
2018-03-26T13:18:29.851Z,53.10
2018-03-26T13:20:57.401Z,52.50
2018-03-26T13:23:24.910Z,53.30
2018-03-26T13:25:52.449Z,51.90
2018-03-26T13:28:19.966Z,52.10
2018-03-26T13:30:48.251Z,50.70
2018-03-26T13:33:16.586Z,49.60
2018-03-26T13:35:44.207Z,49.60
2018-03-26T13:38:11.738Z,49.70
2018-03-26T13:40:39.286Z,49.00
2018-03-26T13:43:06.812Z,48.40
2018-03-26T13:45:34.325Z,49.50
2018-03-26T13:48:01.862Z,50.20
2018-03-26T13:50:29.431Z,50.40
2018-03-26T13:52:56.951Z,49.80
2018-03-26T13:55:25.254Z,50.70
2018-03-26T13:57:52.774Z,50.60
2018-03-26T14:00:20.476Z,50.70
2018-03-26T14:02:48.028Z,50.00
2018-03-26T14:05:16.305Z,50.40
2018-03-26T14:07:44.583Z,50.80
2018-03-26T14:10:24.945Z,50.10
2018-03-26T14:13:05.054Z,50.40
2018-03-26T14:15:44.636Z,50.30
2018-03-26T14:18:12.931Z,50.20
2018-03-26T14:20:40.508Z,50.20
2018-03-26T14:23:08.071Z,50.10
2018-03-26T14:25:35.595Z,49.40
2018-03-26T14:28:04.618Z,49.60
2018-03-26T14:30:33.059Z,50.60
2018-03-26T14:33:00.574Z,50.50
2018-03-26T14:35:43.089Z,50.20
2018-03-26T14:38:10.620Z,49.90
2018-03-26T14:40:38.913Z,50.30
2018-03-26T14:43:06.516Z,50.10
2018-03-26T14:45:34.035Z,49.80
2018-03-26T14:48:01.591Z,50.00
2018-03-26T14:50:29.197Z,50.00
2018-03-26T14:52:56.726Z,53.50
2018-03-26T14:55:25.092Z,50.60
2018-03-26T14:57:52.651Z,50.60
2018-03-26T15:00:20.174Z,49.60
2018-03-26T15:02:47.710Z,49.80
2018-03-26T15:05:15.290Z,50.10
2018-03-26T15:07:42.798Z,50.70
2018-03-26T15:10:10.327Z,49.60
2018-03-26T15:12:37.859Z,49.60
2018-03-26T15:15:06.149Z,50.40
2018-03-26T15:17:34.441Z,50.80
2018-03-26T15:20:01.975Z,50.80
2018-03-26T15:22:29.491Z,50.40
2018-03-26T15:24:57.022Z,50.60
2018-03-26T15:27:24.578Z,51.40
2018-03-26T15:29:52.140Z,51.70
2018-03-26T15:32:20.436Z,52.20
2018-03-26T15:34:48.043Z,52.10
2018-03-26T15:37:15.609Z,52.80
2018-03-26T15:39:43.151Z,53.20
2018-03-26T15:42:10.712Z,54.10
2018-03-26T15:44:38.227Z,53.20
2018-03-26T15:47:05.754Z,53.50
2018-03-26T15:49:33.602Z,53.80
2018-03-26T15:52:01.114Z,53.70
2018-03-26T15:54:28.639Z,54.00
2018-03-26T15:56:56.175Z,54.60
2018-03-26T15:59:24.554Z,54.90
2018-03-26T16:01:51.622Z,54.80
2018-03-26T16:04:19.930Z,54.90
2018-03-26T16:06:47.476Z,54.90
2018-03-26T16:09:15.077Z,55.10
2018-03-26T16:11:42.718Z,55.10
2018-03-26T16:14:10.222Z,54.90
2018-03-26T16:16:37.727Z,54.80
2018-03-26T16:19:06.031Z,55.40
2018-03-26T16:21:33.543Z,55.30
2018-03-26T16:24:01.066Z,55.50
2018-03-26T16:26:28.614Z,55.80
2018-03-26T16:28:56.183Z,56.10
2018-03-26T16:31:23.699Z,56.20
2018-03-26T16:33:52.760Z,56.90
2018-03-26T16:36:20.282Z,56.90
2018-03-26T16:38:48.560Z,57.30
2018-03-26T16:41:28.956Z,57.50
2018-03-26T16:43:56.468Z,57.50
2018-03-26T16:46:23.994Z,57.70
2018-03-26T16:48:51.546Z,58.00
2018-03-26T16:51:19.057Z,58.00
2018-03-26T16:53:46.619Z,58.40
2018-03-26T16:56:14.168Z,58.30
2018-03-26T16:58:41.686Z,58.10
2018-03-26T17:01:09.214Z,58.50
2018-03-26T17:03:38.282Z,58.30
2018-03-26T17:06:05.804Z,58.90
2018-03-26T17:08:34.093Z,58.60
2018-03-26T17:11:02.456Z,59.10
2018-03-26T17:13:29.910Z,59.00
2018-03-26T17:15:58.211Z,59.40
2018-03-26T17:18:26.502Z,59.30
2018-03-26T17:20:54.011Z,59.30
2018-03-26T17:23:21.533Z,59.40
2018-03-26T17:25:49.082Z,59.50
2018-03-26T17:28:16.618Z,60.30
2018-03-26T17:30:44.147Z,60.40
2018-03-26T17:33:11.717Z,60.60
2018-03-26T17:35:39.239Z,61.00
2018-03-26T17:38:06.764Z,61.60
2018-03-26T17:40:34.593Z,62.00
2018-03-26T17:43:02.122Z,61.90
2018-03-26T17:45:29.643Z,62.00
2018-03-26T17:47:57.201Z,62.50
2018-03-26T17:50:24.727Z,62.90
2018-03-26T17:52:53.007Z,63.40
2018-03-26T17:55:21.305Z,63.50
2018-03-26T17:57:48.832Z,63.40
2018-03-26T18:00:16.978Z,63.40
2018-03-26T18:02:44.534Z,63.60
2018-03-26T18:05:12.091Z,63.80
2018-03-26T18:07:39.619Z,63.60
2018-03-26T18:10:07.976Z,64.00
2018-03-26T18:12:35.454Z,63.90
2018-03-26T18:15:03.762Z,64.70
2018-03-26T18:17:32.066Z,64.40
2018-03-26T18:19:59.567Z,64.30
2018-03-26T18:22:27.163Z,64.50
2018-03-26T18:24:55.459Z,64.60
2018-03-26T18:27:23.733Z,64.30
2018-03-26T18:29:52.267Z,64.50
2018-03-26T18:32:19.818Z,64.50
2018-03-26T18:34:47.342Z,64.70
2018-03-26T18:37:15.638Z,64.90
2018-03-26T18:39:43.214Z,64.90
2018-03-26T18:42:10.726Z,64.60
2018-03-26T18:44:38.236Z,64.90
2018-03-26T18:47:05.772Z,64.80
2018-03-26T18:49:34.058Z,65.30
2018-03-26T18:52:02.383Z,65.00
2018-03-26T18:54:29.999Z,65.00
2018-03-26T18:56:58.328Z,65.50
2018-03-26T18:59:25.944Z,65.40
2018-03-26T19:01:53.494Z,66.10
2018-03-26T19:04:21.024Z,67.10
2018-03-26T19:06:48.637Z,66.70
2018-03-26T19:09:16.959Z,66.60
2018-03-26T19:11:44.483Z,66.50
2018-03-26T19:14:12.811Z,66.80
2018-03-26T19:16:40.401Z,66.70
2018-03-26T19:19:07.901Z,66.30
2018-03-26T19:21:35.461Z,65.90
2018-03-26T19:24:03.023Z,66.30
2018-03-26T19:26:30.549Z,66.50
2018-03-26T19:28:58.084Z,66.70
2018-03-26T19:31:25.606Z,66.50
2018-03-26T19:33:53.908Z,66.40
2018-03-26T19:36:22.191Z,66.30
2018-03-26T19:38:50.499Z,66.30
2018-03-26T19:41:18.085Z,66.20
2018-03-26T19:43:45.634Z,66.70
2018-03-26T19:46:13.211Z,67.00
2018-03-26T19:48:43.033Z,67.00
2018-03-26T19:51:10.747Z,67.00
2018-03-26T19:53:39.062Z,66.80
2018-03-26T19:56:06.581Z,66.90
2018-03-26T19:58:34.118Z,67.70
2018-03-26T20:01:01.745Z,68.90
2018-03-26T20:03:29.270Z,68.70
2018-03-26T20:05:56.794Z,68.50
2018-03-26T20:08:24.407Z,68.80
2018-03-26T20:10:52.742Z,68.90
2018-03-26T20:13:20.438Z,68.80
2018-03-26T20:15:48.913Z,69.40
2018-03-26T20:18:16.696Z,69.60
2018-03-26T20:20:44.361Z,69.60
2018-03-26T20:23:12.875Z,69.60
2018-03-26T20:25:40.442Z,69.50
2018-03-26T20:28:08.735Z,69.50
2018-03-26T20:30:37.044Z,69.50
2018-03-26T20:33:04.575Z,69.40
2018-03-26T20:35:32.850Z,69.50
2018-03-26T20:38:01.909Z,69.60
2018-03-26T20:40:29.740Z,69.60
2018-03-26T20:42:58.017Z,70.60
2018-03-26T20:45:26.362Z,69.90
2018-03-26T20:47:53.902Z,69.90
2018-03-26T20:50:21.441Z,70.00
2018-03-26T20:52:48.987Z,71.30
2018-03-26T20:55:16.733Z,70.50
2018-03-26T20:57:45.027Z,70.10
2018-03-26T21:00:13.322Z,70.50
2018-03-26T21:02:41.602Z,70.20
2018-03-26T21:05:09.133Z,70.20
2018-03-26T21:07:38.182Z,70.20
2018-03-26T21:10:05.806Z,70.10
2018-03-26T21:12:33.346Z,70.00
2018-03-26T21:15:00.886Z,70.70
2018-03-26T21:17:28.389Z,69.90
2018-03-26T21:19:56.745Z,69.80
2018-03-26T21:22:24.281Z,69.80
2018-03-26T21:24:51.807Z,69.20
2018-03-26T21:27:19.423Z,70.10
2018-03-26T21:29:47.235Z,69.60
2018-03-26T21:32:14.771Z,69.40
2018-03-26T21:34:42.279Z,69.60
2018-03-26T21:37:09.802Z,69.90
2018-03-26T21:39:37.322Z,70.80
2018-03-26T21:42:05.682Z,70.40
2018-03-26T21:44:33.256Z,70.40
2018-03-26T21:47:01.529Z,70.50
2018-03-26T21:49:29.810Z,71.20
2018-03-26T21:51:58.123Z,70.70
2018-03-26T21:54:25.659Z,70.70
2018-03-26T21:56:53.963Z,71.20
2018-03-26T21:59:21.513Z,71.00
2018-03-26T22:01:49.802Z,71.20
2018-03-26T22:04:18.089Z,70.90
2018-03-26T22:06:46.452Z,70.80
2018-03-26T22:09:13.961Z,70.80
2018-03-26T22:11:41.574Z,70.70
2018-03-26T22:16:38.912Z,71.00
2018-03-26T22:19:07.254Z,71.20
2018-03-26T22:21:35.547Z,71.20
2018-03-26T22:24:03.891Z,72.00
2018-03-26T22:26:32.181Z,72.30
2018-03-26T22:28:59.700Z,72.30
2018-03-26T22:31:28.154Z,72.50
2018-03-26T22:33:56.446Z,71.70
2018-03-26T22:36:23.970Z,71.70
2018-03-26T22:38:51.506Z,71.60
2018-03-26T22:41:19.031Z,71.90
2018-03-26T22:43:47.331Z,72.10
2018-03-26T22:46:14.883Z,72.00
2018-03-26T22:48:43.166Z,72.40
2018-03-26T22:51:10.706Z,72.30
2018-03-26T22:53:39.105Z,72.20
2018-03-26T22:56:07.389Z,72.40
2018-03-26T22:58:35.677Z,72.40
2018-03-26T23:01:03.214Z,72.40
2018-03-26T23:03:31.539Z,72.40
2018-03-26T23:05:59.052Z,72.40
2018-03-26T23:08:26.587Z,72.80
2018-03-26T23:10:54.095Z,73.00
2018-03-26T23:13:22.459Z,73.20
2018-03-26T23:15:50.138Z,73.30
2018-03-26T23:18:18.411Z,73.60
2018-03-26T23:20:45.931Z,73.40
2018-03-26T23:23:13.487Z,73.40
2018-03-26T23:25:41.030Z,73.30
2018-03-26T23:28:09.325Z,73.00
2018-03-26T23:30:36.870Z,72.90
2018-03-26T23:33:05.154Z,72.70
2018-03-26T23:35:33.447Z,73.10
2018-03-26T23:38:01.003Z,72.90
2018-03-26T23:40:28.535Z,72.90
2018-03-26T23:42:56.056Z,73.40
2018-03-26T23:45:23.615Z,73.80
2018-03-26T23:47:51.319Z,73.60
2018-03-26T23:50:18.829Z,74.30
2018-03-26T23:52:47.155Z,74.70
2018-03-26T23:55:14.668Z,74.60
2018-03-26T23:57:42.963Z,74.50
